Time;durP1;ratioP1;P1;durP2;ratioP2;P2;SDS_P1;SDS_P2;PMS_P1;PMS_P2;Temp;Humidity;BMP_temperature;BMP_pressure;BME280_temperature;BME280_humidity;BME280_pressure;Samples;Min_cycle;Max_cycle;Signal;HPM_P1;HPM_P2
2022/08/09 00:00:24;;;;;;;4.03;1.90;;;;;;;;;;5056476;28;20449;-71
2022/08/09 00:02:50;;;;;;;4.10;2.25;;;;;;;;;;5055148;28;20109;-71
2022/08/09 00:05:20;;;;;;;2.38;1.95;;;;;;;;;;5056436;28;20377;-71
2022/08/09 00:07:45;;;;;;;3.20;2.17;;;;;;;;;;5056635;28;20112;-71
2022/08/09 00:10:11;;;;;;;2.15;1.98;;;;;;;;;;5056606;28;20512;-71
2022/08/09 00:12:36;;;;;;;2.08;1.88;;;;;;;;;;5056128;28;20025;-71
2022/08/09 00:15:02;;;;;;;5.57;3.20;;;;;;;;;;5056473;28;20083;-71
2022/08/09 00:17:27;;;;;;;7.30;3.67;;;;;;;;;;5056474;28;20029;-70
2022/08/09 00:19:53;;;;;;;5.10;3.00;;;;;;;;;;5055237;28;20029;-71
2022/08/09 00:22:18;;;;;;;8.60;4.20;;;;;;;;;;5056323;28;20028;-70
2022/08/09 00:24:44;;;;;;;11.30;4.53;;;;;;;;;;5056307;28;20047;-70
2022/08/09 00:27:09;;;;;;;6.28;3.20;;;;;;;;;;5055977;28;20074;-70
2022/08/09 00:29:35;;;;;;;3.00;2.53;;;;;;;;;;5054979;28;20043;-70
2022/08/09 00:32:00;;;;;;;4.28;2.63;;;;;;;;;;5055850;28;20025;-70
2022/08/09 00:34:25;;;;;;;6.40;3.08;;;;;;;;;;5055139;28;20021;-70
2022/08/09 00:36:51;;;;;;;3.45;2.40;;;;;;;;;;5056068;28;20025;-70
2022/08/09 00:39:16;;;;;;;4.00;2.50;;;;;;;;;;5055750;28;20443;-70
2022/08/09 00:41:42;;;;;;;3.92;2.38;;;;;;;;;;5054413;28;20027;-70
2022/08/09 00:44:07;;;;;;;2.85;2.65;;;;;;;;;;5054432;28;20021;-70
2022/08/09 00:46:33;;;;;;;3.20;2.30;;;;;;;;;;5055918;28;20025;-71
2022/08/09 00:48:58;;;;;;;4.07;2.10;;;;;;;;;;5055570;28;20078;-72
2022/08/09 00:51:24;;;;;;;2.45;2.17;;;;;;;;;;5055459;28;20044;-73
2022/08/09 00:53:49;;;;;;;2.10;2.00;;;;;;;;;;5055671;28;20476;-72
2022/08/09 00:56:15;;;;;;;3.67;1.80;;;;;;;;;;5055704;28;20052;-70
2022/08/09 00:58:41;;;;;;;3.85;2.08;;;;;;;;;;5055597;28;20071;-70
2022/08/09 01:01:11;;;;;;;3.50;2.03;;;;;;;;;;5055655;28;20068;-70
2022/08/09 01:03:56;;;;;;;1.88;1.75;;;;;;;;;;5054081;28;20033;-70
2022/08/09 01:06:35;;;;;;;2.13;1.92;;;;;;;;;;5055483;28;20116;-70
2022/08/09 01:09:18;;;;;;;2.47;2.10;;;;;;;;;;5054795;28;20146;-70
2022/08/09 01:11:52;;;;;;;3.30;2.10;;;;;;;;;;5055466;28;20044;-70
2022/08/09 01:14:25;;;;;;;2.50;2.30;;;;;;;;;;5055083;28;20032;-70
2022/08/09 01:16:54;;;;;;;2.67;2.47;;;;;;;;;;5055268;28;20036;-70
2022/08/09 01:19:29;;;;;;;3.30;2.38;;;;;;;;;;5054546;28;20411;-69
2022/08/09 01:22:11;;;;;;;2.28;2.10;;;;;;;;;;5054966;28;20032;-71
2022/08/09 01:24:42;;;;;;;1.98;1.88;;;;;;;;;;5055230;28;20056;-71
2022/08/09 01:27:09;;;;;;;2.30;2.08;;;;;;;;;;5054858;28;20033;-71
2022/08/09 01:29:42;;;;;;;1.85;1.70;;;;;;;;;;5053573;28;20024;-71
2022/08/09 01:32:09;;;;;;;1.80;1.70;;;;;;;;;;5053522;28;20056;-71
2022/08/09 01:34:36;;;;;;;2.15;1.67;;;;;;;;;;5053376;28;20029;-71
2022/08/09 01:37:05;;;;;;;1.80;1.58;;;;;;;;;;5053365;28;20025;-71
2022/08/09 01:39:34;;;;;;;1.77;1.67;;;;;;;;;;5054496;28;20056;-71
2022/08/09 01:42:01;;;;;;;2.88;1.85;;;;;;;;;;5036753;28;20167;-70
2022/08/09 01:44:27;;;;;;;1.98;1.75;;;;;;;;;;5054573;28;20021;-70
2022/08/09 01:46:53;;;;;;;2.00;1.67;;;;;;;;;;5053806;28;20389;-70
2022/08/09 01:49:19;;;;;;;3.42;1.65;;;;;;;;;;5054459;28;20021;-71
2022/08/09 01:51:47;;;;;;;1.85;1.67;;;;;;;;;;5053006;28;20041;-71
2022/08/09 01:54:13;;;;;;;2.05;1.90;;;;;;;;;;5054267;28;20466;-71
2022/08/09 01:56:40;;;;;;;2.53;2.30;;;;;;;;;;5054872;28;20032;-71
2022/08/09 01:59:07;;;;;;;4.05;2.28;;;;;;;;;;5054544;28;20475;-70
2022/08/09 02:01:34;;;;;;;5.35;2.28;;;;;;;;;;5053051;28;20544;-71
2022/08/09 02:04:00;;;;;;;3.00;2.10;;;;;;;;;;5052869;28;20024;-71
2022/08/09 02:09:11;;;;;;;2.58;1.63;;;;;;;;;;5054285;28;20427;-71
2022/08/09 02:11:36;;;;;;;1.88;1.50;;;;;;;;;;5052797;28;20029;-71
2022/08/09 02:14:02;;;;;;;2.47;1.67;;;;;;;;;;5052648;28;20071;-71
2022/08/09 02:16:32;;;;;;;2.75;1.73;;;;;;;;;;5053970;28;20096;-70
2022/08/09 02:18:58;;;;;;;1.73;1.63;;;;;;;;;;5053914;28;20131;-71
2022/08/09 02:21:23;;;;;;;2.50;2.05;;;;;;;;;;5053898;28;20040;-70
2022/08/09 02:23:52;;;;;;;2.38;1.90;;;;;;;;;;5054064;28;20071;-70
2022/08/09 02:26:18;;;;;;;3.28;1.85;;;;;;;;;;5054105;28;20134;-71
2022/08/09 02:28:48;;;;;;;1.80;1.70;;;;;;;;;;5054049;28;20059;-71
2022/08/09 02:31:26;;;;;;;1.70;1.55;;;;;;;;;;5054268;28;20040;-71
2022/08/09 02:33:53;;;;;;;1.88;1.77;;;;;;;;;;5052291;28;20435;-71
2022/08/09 02:36:21;;;;;;;1.85;1.75;;;;;;;;;;5053965;28;20021;-71
2022/08/09 02:38:50;;;;;;;3.50;1.80;;;;;;;;;;5053845;28;20362;-71
2022/08/09 02:41:29;;;;;;;3.63;1.80;;;;;;;;;;5052751;28;20029;-70
2022/08/09 02:43:59;;;;;;;2.97;1.73;;;;;;;;;;5053540;28;20342;-70
2022/08/09 02:46:26;;;;;;;2.20;2.00;;;;;;;;;;5053536;28;20108;-70
2022/08/09 02:48:52;;;;;;;1.90;1.55;;;;;;;;;;5053441;28;20056;-70
2022/08/09 02:51:19;;;;;;;2.08;1.88;;;;;;;;;;5053312;28;20032;-70
2022/08/09 02:53:47;;;;;;;2.22;1.88;;;;;;;;;;5052778;28;20040;-70
2022/08/09 02:56:12;;;;;;;3.22;1.88;;;;;;;;;;5054006;28;20025;-70
2022/08/09 02:58:39;;;;;;;2.15;1.95;;;;;;;;;;5059471;28;20536;-71
2022/08/09 03:01:05;;;;;;;3.05;1.88;;;;;;;;;;5060353;28;20009;-71
2022/08/09 03:03:32;;;;;;;2.05;1.88;;;;;;;;;;5060285;28;20063;-71
2022/08/09 03:05:58;;;;;;;3.72;1.98;;;;;;;;;;5060050;28;20052;-71
2022/08/09 03:08:24;;;;;;;3.47;1.92;;;;;;;;;;5059964;28;20064;-71
2022/08/09 03:10:51;;;;;;;1.85;1.75;;;;;;;;;;5060264;28;20048;-70
2022/08/09 03:13:18;;;;;;;2.20;1.95;;;;;;;;;;5058655;28;20392;-70
2022/08/09 03:15:43;;;;;;;2.78;2.10;;;;;;;;;;5060218;28;20045;-70
2022/08/09 03:18:09;;;;;;;2.72;2.13;;;;;;;;;;5060210;28;20056;-71
2022/08/09 03:20:37;;;;;;;2.22;2.03;;;;;;;;;;5058741;28;20029;-70
2022/08/09 03:23:02;;;;;;;4.30;2.58;;;;;;;;;;5059909;28;20052;-70
2022/08/09 03:25:29;;;;;;;2.47;2.33;;;;;;;;;;5060158;28;20025;-70
2022/08/09 03:27:55;;;;;;;4.10;2.00;;;;;;;;;;5058695;28;20469;-70
2022/08/09 03:30:21;;;;;;;2.38;2.22;;;;;;;;;;5058946;28;20024;-71
2022/08/09 03:32:47;;;;;;;2.20;2.00;;;;;;;;;;5058383;28;20025;-71
2022/08/09 03:35:12;;;;;;;3.78;2.03;;;;;;;;;;5060320;28;20017;-71
2022/08/09 03:37:39;;;;;;;3.38;2.10;;;;;;;;;;5060024;28;20056;-71
2022/08/09 03:40:05;;;;;;;4.13;1.70;;;;;;;;;;5060038;28;20028;-71
2022/08/09 03:42:30;;;;;;;3.30;1.60;;;;;;;;;;5060272;28;20469;-71
2022/08/09 03:44:55;;;;;;;2.35;1.98;;;;;;;;;;5059748;28;20051;-74
2022/08/09 03:47:21;;;;;;;3.20;2.10;;;;;;;;;;5058726;28;20021;-74
2022/08/09 03:49:48;;;;;;;2.85;2.10;;;;;;;;;;5057367;28;20374;-74
2022/08/09 03:52:13;;;;;;;2.15;1.98;;;;;;;;;;5058254;28;20056;-74
2022/08/09 03:54:39;;;;;;;2.72;2.08;;;;;;;;;;5058513;28;20039;-74
2022/08/09 03:57:06;;;;;;;5.53;2.30;;;;;;;;;;5040608;28;20029;-74
2022/08/09 03:59:32;;;;;;;4.70;2.10;;;;;;;;;;5058569;28;20047;-74
2022/08/09 04:01:58;;;;;;;3.58;2.00;;;;;;;;;;5058493;28;20029;-74
2022/08/09 04:04:24;;;;;;;3.30;1.88;;;;;;;;;;5058425;28;20409;-72
2022/08/09 04:06:51;;;;;;;2.40;2.00;;;;;;;;;;5057054;28;20040;-73
2022/08/09 04:09:16;;;;;;;2.28;2.00;;;;;;;;;;5055602;28;20029;-73
2022/08/09 04:11:50;;;;;;;4.28;2.05;;;;;;;;;;5055209;28;20025;-73
2022/08/09 04:14:17;;;;;;;3.28;2.10;;;;;;;;;;5054525;28;20033;-73
2022/08/09 04:16:42;;;;;;;2.08;1.92;;;;;;;;;;5054671;28;20029;-73
2022/08/09 04:19:10;;;;;;;3.67;2.25;;;;;;;;;;5055922;28;20082;-73
2022/08/09 04:21:35;;;;;;;2.45;2.25;;;;;;;;;;5054637;28;20013;-73
2022/08/09 04:24:00;;;;;;;2.72;2.05;;;;;;;;;;5055101;28;20037;-73
2022/08/09 04:26:26;;;;;;;3.92;2.20;;;;;;;;;;5055710;28;20023;-73
2022/08/09 04:28:51;;;;;;;2.92;2.20;;;;;;;;;;5053600;28;20029;-73
2022/08/09 04:31:16;;;;;;;2.15;1.95;;;;;;;;;;5054268;28;20017;-73
2022/08/09 04:33:42;;;;;;;2.55;2.20;;;;;;;;;;5053836;28;20439;-73
2022/08/09 04:36:07;;;;;;;4.15;2.15;;;;;;;;;;5052769;28;20025;-73
2022/08/09 04:38:33;;;;;;;2.42;2.22;;;;;;;;;;5053872;28;20439;-73
2022/08/09 04:40:58;;;;;;;2.45;2.08;;;;;;;;;;5053967;28;20063;-73
2022/08/09 04:43:24;;;;;;;2.80;1.92;;;;;;;;;;5053835;28;20487;-73
2022/08/09 04:45:50;;;;;;;2.40;1.90;;;;;;;;;;5053542;28;20025;-73
2022/08/09 04:48:15;;;;;;;4.95;2.20;;;;;;;;;;5053782;28;20082;-73
2022/08/09 04:50:41;;;;;;;2.63;2.00;;;;;;;;;;5053029;28;20053;-73
2022/08/09 04:53:09;;;;;;;3.53;1.75;;;;;;;;;;5053239;28;20062;-73
2022/08/09 04:55:34;;;;;;;9.05;2.35;;;;;;;;;;5054950;28;20057;-73
2022/08/09 04:58:00;;;;;;;2.67;2.10;;;;;;;;;;5055132;28;20071;-73
2022/08/09 05:00:25;;;;;;;2.42;2.13;;;;;;;;;;5055459;28;20098;-73
2022/08/09 05:02:51;;;;;;;2.30;2.10;;;;;;;;;;5055885;28;20032;-73
2022/08/09 05:05:16;;;;;;;2.28;1.92;;;;;;;;;;5055332;28;20090;-73
2022/08/09 05:07:41;;;;;;;4.85;2.10;;;;;;;;;;5054096;28;20025;-73
2022/08/09 05:10:07;;;;;;;3.05;1.80;;;;;;;;;;5055257;28;20439;-73
2022/08/09 05:12:33;;;;;;;5.28;2.10;;;;;;;;;;5055318;28;20117;-73
2022/08/09 05:14:58;;;;;;;6.20;1.98;;;;;;;;;;5055139;28;20016;-73
2022/08/09 05:17:23;;;;;;;2.95;1.98;;;;;;;;;;5053772;28;20025;-73
2022/08/09 05:19:49;;;;;;;1.90;1.80;;;;;;;;;;5054900;28;20096;-73
2022/08/09 05:22:15;;;;;;;2.88;1.67;;;;;;;;;;5054961;28;20017;-73
2022/08/09 05:24:40;;;;;;;2.33;1.45;;;;;;;;;;5054259;28;20017;-73
2022/08/09 05:27:06;;;;;;;2.03;1.50;;;;;;;;;;5054854;28;20048;-73
2022/08/09 05:29:31;;;;;;;1.50;1.40;;;;;;;;;;5055083;28;20029;-73
2022/08/09 05:31:59;;;;;;;1.50;1.40;;;;;;;;;;5053669;28;20029;-73
2022/08/09 05:34:28;;;;;;;1.85;1.20;;;;;;;;;;5053537;28;20048;-73
2022/08/09 05:36:55;;;;;;;1.45;1.35;;;;;;;;;;5055264;28;20461;-73
2022/08/09 05:39:20;;;;;;;2.75;1.40;;;;;;;;;;5053507;28;20032;-73
2022/08/09 05:41:46;;;;;;;2.60;1.42;;;;;;;;;;5053323;28;20037;-73
2022/08/09 05:44:11;;;;;;;2.55;1.48;;;;;;;;;;5054611;28;20021;-73
2022/08/09 05:46:37;;;;;;;2.70;1.52;;;;;;;;;;5055076;28;20037;-73
2022/08/09 05:49:03;;;;;;;4.13;1.67;;;;;;;;;;5053579;28;20025;-73
2022/08/09 05:51:29;;;;;;;5.30;2.35;;;;;;;;;;5054433;28;20128;-73
2022/08/09 05:53:54;;;;;;;7.30;4.80;;;;;;;;;;5053830;28;20120;-73
2022/08/09 05:56:20;;;;;;;19.52;9.32;;;;;;;;;;5054356;28;20020;-73
2022/08/09 05:58:45;;;;;;;11.73;6.10;;;;;;;;;;5053017;28;20473;-73
2022/08/09 06:01:11;;;;;;;10.68;5.47;;;;;;;;;;5054494;28;20021;-73
2022/08/09 06:03:36;;;;;;;6.53;3.15;;;;;;;;;;5054723;28;20029;-73
2022/08/09 06:06:02;;;;;;;1.60;1.50;;;;;;;;;;5054421;28;20135;-73
2022/08/09 06:08:27;;;;;;;1.95;1.45;;;;;;;;;;5054377;28;20029;-73
2022/08/09 06:10:53;;;;;;;2.05;1.30;;;;;;;;;;5054064;28;20492;-73
2022/08/09 06:13:19;;;;;;;2.30;1.48;;;;;;;;;;5052692;28;20032;-73
2022/08/09 06:15:44;;;;;;;2.35;1.50;;;;;;;;;;5054253;28;20025;-73
2022/08/09 06:18:10;;;;;;;3.67;1.42;;;;;;;;;;5054213;28;20028;-73
2022/08/09 06:20:36;;;;;;;3.05;1.20;;;;;;;;;;5053928;28;20025;-73
2022/08/09 06:23:01;;;;;;;2.00;1.30;;;;;;;;;;5054109;28;20037;-73
2022/08/09 06:25:27;;;;;;;1.25;1.13;;;;;;;;;;5054084;28;20067;-73
2022/08/09 06:27:52;;;;;;;1.85;1.02;;;;;;;;;;5053796;28;20457;-73
2022/08/09 06:30:18;;;;;;;2.33;1.15;;;;;;;;;;5054046;28;20017;-73
2022/08/09 06:32:44;;;;;;;4.18;1.20;;;;;;;;;;5053104;28;20032;-73
2022/08/09 06:35:10;;;;;;;2.33;1.35;;;;;;;;;;5053668;28;20031;-73
2022/08/09 06:37:35;;;;;;;2.22;0.90;;;;;;;;;;5036031;28;20079;-73
2022/08/09 06:40:01;;;;;;;1.35;1.10;;;;;;;;;;5053639;28;20028;-73
2022/08/09 06:42:26;;;;;;;8.65;3.65;;;;;;;;;;5052358;28;20017;-73
2022/08/09 06:44:51;;;;;;;12.00;8.50;;;;;;;;;;5052315;28;20021;-73
2022/08/09 06:47:17;;;;;;;7.55;5.95;;;;;;;;;;5053832;28;20124;-73
2022/08/09 06:49:42;;;;;;;5.00;1.90;;;;;;;;;;5053521;28;20021;-73
2022/08/09 06:52:08;;;;;;;5.20;3.50;;;;;;;;;;5053544;28;20096;-73
2022/08/09 06:54:33;;;;;;;2.40;2.20;;;;;;;;;;5053673;28;20029;-73
2022/08/09 06:56:59;;;;;;;2.13;1.05;;;;;;;;;;5053710;28;20060;-73
2022/08/09 06:59:25;;;;;;;2.22;1.30;;;;;;;;;;5052147;28;20103;-73
2022/08/09 07:01:50;;;;;;;1.00;1.00;;;;;;;;;;5053962;28;20041;-73
2022/08/09 07:04:16;;;;;;;2.63;1.15;;;;;;;;;;5035558;28;20029;-73
2022/08/09 07:06:41;;;;;;;1.10;1.00;;;;;;;;;;5052631;28;20031;-73
2022/08/09 07:09:07;;;;;;;1.58;1.10;;;;;;;;;;5053619;28;20354;-73
2022/08/09 07:11:32;;;;;;;3.25;1.20;;;;;;;;;;5053286;28;20047;-73
2022/08/09 07:13:58;;;;;;;1.60;1.00;;;;;;;;;;5053244;28;20029;-73
2022/08/09 07:16:23;;;;;;;1.40;0.90;;;;;;;;;;5052036;28;20120;-73
2022/08/09 07:18:49;;;;;;;1.25;0.80;;;;;;;;;;5053256;28;20024;-73
2022/08/09 07:21:14;;;;;;;1.83;0.90;;;;;;;;;;5053208;28;20025;-73
2022/08/09 07:23:40;;;;;;;5.10;1.10;;;;;;;;;;5053745;28;20024;-73
2022/08/09 07:26:06;;;;;;;1.42;0.82;;;;;;;;;;5053142;28;20500;-73
2022/08/09 07:28:32;;;;;;;1.42;1.30;;;;;;;;;;5053467;28;20033;-73
2022/08/09 07:30:57;;;;;;;1.20;0.77;;;;;;;;;;5053141;28;20032;-73
2022/08/09 07:33:22;;;;;;;1.17;1.05;;;;;;;;;;5053016;28;20090;-73
2022/08/09 07:35:48;;;;;;;1.45;1.02;;;;;;;;;;5053352;28;20044;-73
2022/08/09 07:38:13;;;;;;;1.75;0.88;;;;;;;;;;5051814;28;20020;-73
2022/08/09 07:40:39;;;;;;;1.40;0.70;;;;;;;;;;5052996;28;20064;-73
2022/08/09 07:43:04;;;;;;;3.70;1.10;;;;;;;;;;5053020;28;20381;-73
2022/08/09 07:45:30;;;;;;;1.73;1.00;;;;;;;;;;5055335;28;20036;-73
2022/08/09 07:47:56;;;;;;;5.50;1.20;;;;;;;;;;5055512;28;20020;-73
2022/08/09 07:50:23;;;;;;;1.05;0.95;;;;;;;;;;5056734;28;20083;-73
2022/08/09 07:52:49;;;;;;;2.85;0.98;;;;;;;;;;5056498;28;20117;-73
2022/08/09 07:55:15;;;;;;;3.45;1.20;;;;;;;;;;5056623;28;20572;-73
2022/08/09 07:57:41;;;;;;;3.17;1.15;;;;;;;;;;5056579;28;20021;-73
2022/08/09 08:00:07;;;;;;;0.60;0.60;;;;;;;;;;5055309;28;20484;-73
2022/08/09 08:02:38;;;;;;;1.67;0.90;;;;;;;;;;5057067;28;20021;-73
2022/08/09 08:05:04;;;;;;;1.20;0.82;;;;;;;;;;5056405;28;20091;-73
2022/08/09 08:07:29;;;;;;;2.03;0.90;;;;;;;;;;5056687;28;20024;-73
2022/08/09 08:09:55;;;;;;;0.85;0.80;;;;;;;;;;5056351;28;20473;-73
2022/08/09 08:12:20;;;;;;;1.35;0.90;;;;;;;;;;5056320;28;20578;-73
2022/08/09 08:14:46;;;;;;;2.17;0.95;;;;;;;;;;5056528;28;20029;-73
2022/08/09 08:17:12;;;;;;;1.15;1.00;;;;;;;;;;5056208;28;20453;-73
2022/08/09 08:19:37;;;;;;;1.73;0.93;;;;;;;;;;5056117;28;20028;-73
2022/08/09 08:22:03;;;;;;;3.25;0.82;;;;;;;;;;5054886;28;20457;-73
2022/08/09 08:24:28;;;;;;;1.70;1.00;;;;;;;;;;5056344;28;20475;-73
2022/08/09 08:26:54;;;;;;;1.77;0.90;;;;;;;;;;5056356;28;20139;-73
2022/08/09 08:29:19;;;;;;;1.25;1.00;;;;;;;;;;5055121;28;20106;-73
2022/08/09 08:31:45;;;;;;;1.30;0.93;;;;;;;;;;5038114;28;20025;-73
2022/08/09 08:34:10;;;;;;;1.45;0.73;;;;;;;;;;5056121;28;20029;-73
2022/08/09 08:36:35;;;;;;;2.85;1.00;;;;;;;;;;5054657;28;20096;-73
2022/08/09 08:39:01;;;;;;;3.78;0.98;;;;;;;;;;5056086;28;20078;-73
2022/08/09 08:41:27;;;;;;;2.55;1.00;;;;;;;;;;5056037;28;20013;-73
2022/08/09 08:43:52;;;;;;;1.58;1.08;;;;;;;;;;5055754;28;20112;-73
2022/08/09 08:46:19;;;;;;;2.30;0.85;;;;;;;;;;5054463;28;20384;-73
2022/08/09 08:48:46;;;;;;;0.88;0.70;;;;;;;;;;5054505;28;20036;-73
2022/08/09 08:51:11;;;;;;;2.40;0.90;;;;;;;;;;5054223;28;20182;-73
2022/08/09 08:53:37;;;;;;;3.45;0.95;;;;;;;;;;5056076;28;20120;-73
2022/08/09 08:56:05;;;;;;;4.18;0.88;;;;;;;;;;5054913;28;20040;-73
2022/08/09 08:58:31;;;;;;;1.60;1.00;;;;;;;;;;5054166;28;20040;-73
2022/08/09 09:00:57;;;;;;;1.55;1.00;;;;;;;;;;5055725;28;20461;-73
2022/08/09 09:03:28;;;;;;;1.48;0.90;;;;;;;;;;5055357;28;20041;-73
2022/08/09 09:05:55;;;;;;;1.80;0.95;;;;;;;;;;5054452;28;20025;-73
2022/08/09 09:08:21;;;;;;;1.67;0.95;;;;;;;;;;5055816;28;20021;-73
2022/08/09 09:10:47;;;;;;;2.97;1.10;;;;;;;;;;5053980;28;20044;-73
2022/08/09 09:13:14;;;;;;;3.22;1.00;;;;;;;;;;5055071;28;20024;-73
2022/08/09 09:15:40;;;;;;;1.45;0.98;;;;;;;;;;5055680;28;20040;-73
2022/08/09 09:18:06;;;;;;;2.35;1.20;;;;;;;;;;5055421;28;20017;-73
2022/08/09 09:20:34;;;;;;;3.20;0.95;;;;;;;;;;5055302;28;20159;-73
2022/08/09 09:22:59;;;;;;;3.17;1.13;;;;;;;;;;5055780;28;20423;-73
2022/08/09 09:25:40;;;;;;;0.95;0.73;;;;;;;;;;5054952;28;20037;-73
2022/08/09 09:28:06;;;;;;;2.15;0.90;;;;;;;;;;5053662;28;20053;-73
2022/08/09 09:30:32;;;;;;;3.97;0.90;;;;;;;;;;5055145;28;20397;-73
2022/08/09 09:33:03;;;;;;;3.35;0.90;;;;;;;;;;5054696;28;20130;-73
2022/08/09 09:35:29;;;;;;;3.30;1.13;;;;;;;;;;5053501;28;20025;-73
2022/08/09 09:37:54;;;;;;;0.93;0.68;;;;;;;;;;5054778;28;20536;-73
2022/08/09 09:40:20;;;;;;;2.40;1.00;;;;;;;;;;5054610;28;20385;-73
2022/08/09 09:42:55;;;;;;;1.65;1.10;;;;;;;;;;5054612;28;20060;-73
2022/08/09 09:45:22;;;;;;;4.53;0.88;;;;;;;;;;5054869;28;20035;-73
2022/08/09 09:47:48;;;;;;;2.33;0.85;;;;;;;;;;5054565;28;20009;-73
2022/08/09 09:50:13;;;;;;;2.60;0.93;;;;;;;;;;5054442;28;20029;-73
2022/08/09 09:52:49;;;;;;;3.25;1.00;;;;;;;;;;5053075;28;20143;-73
2022/08/09 09:55:14;;;;;;;2.00;0.90;;;;;;;;;;5054665;28;20477;-73
2022/08/09 09:57:40;;;;;;;4.03;1.13;;;;;;;;;;5054347;28;20063;-73
2022/08/09 10:00:22;;;;;;;2.08;0.90;;;;;;;;;;5054513;28;20032;-73
2022/08/09 10:02:47;;;;;;;1.85;0.90;;;;;;;;;;5054541;28;20039;-73
2022/08/09 10:05:13;;;;;;;3.28;1.00;;;;;;;;;;5054170;28;20017;-73
2022/08/09 10:07:38;;;;;;;3.03;0.90;;;;;;;;;;5053631;28;20032;-73
2022/08/09 10:10:05;;;;;;;1.40;0.75;;;;;;;;;;5054703;28;20032;-73
2022/08/09 10:12:31;;;;;;;1.23;0.90;;;;;;;;;;5052776;28;20018;-73
2022/08/09 10:15:10;;;;;;;1.38;1.00;;;;;;;;;;5053917;28;20021;-73
2022/08/09 10:17:36;;;;;;;1.48;0.93;;;;;;;;;;5054574;28;20040;-73
2022/08/09 10:20:04;;;;;;;2.47;0.80;;;;;;;;;;5052719;28;20017;-73
2022/08/09 10:22:30;;;;;;;3.72;0.90;;;;;;;;;;5054141;28;20043;-73
2022/08/09 10:24:56;;;;;;;3.42;1.02;;;;;;;;;;5054442;28;20408;-74
2022/08/09 10:27:22;;;;;;;2.10;0.98;;;;;;;;;;5053830;28;20029;-73
2022/08/09 10:29:47;;;;;;;3.22;0.90;;;;;;;;;;5054094;28;20024;-73
2022/08/09 10:32:13;;;;;;;1.65;0.70;;;;;;;;;;5054286;28;20457;-73
2022/08/09 10:34:39;;;;;;;1.90;0.90;;;;;;;;;;5052403;28;20032;-73
2022/08/09 10:37:04;;;;;;;2.38;0.90;;;;;;;;;;5054006;28;20108;-73
2022/08/09 10:39:29;;;;;;;4.20;1.00;;;;;;;;;;5053661;28;20090;-73
2022/08/09 10:41:55;;;;;;;1.58;0.85;;;;;;;;;;5053606;28;20535;-73
2022/08/09 10:44:21;;;;;;;1.17;0.80;;;;;;;;;;5053596;28;20024;-73
2022/08/09 10:47:02;;;;;;;4.50;1.10;;;;;;;;;;5053852;28;20025;-73
2022/08/09 10:49:28;;;;;;;2.65;0.90;;;;;;;;;;5054098;28;20029;-73
2022/08/09 10:51:53;;;;;;;2.25;0.95;;;;;;;;;;5053415;28;20041;-73
2022/08/09 10:54:23;;;;;;;1.40;0.80;;;;;;;;;;5053403;28;20126;-73
2022/08/09 10:57:04;;;;;;;1.35;0.80;;;;;;;;;;5053762;28;20021;-73
2022/08/09 10:59:29;;;;;;;1.77;1.00;;;;;;;;;;5053654;28;20033;-73
2022/08/09 11:01:55;;;;;;;4.00;0.98;;;;;;;;;;5053401;28;20021;-73
2022/08/09 11:04:22;;;;;;;1.83;0.90;;;;;;;;;;5053633;28;20108;-73
2022/08/09 11:06:53;;;;;;;1.60;0.77;;;;;;;;;;5053955;28;20414;-73
2022/08/09 11:09:39;;;;;;;4.25;1.10;;;;;;;;;;5053603;28;20029;-73
2022/08/09 11:12:05;;;;;;;1.60;0.80;;;;;;;;;;5053181;28;20144;-73
2022/08/09 11:14:36;;;;;;;1.88;0.88;;;;;;;;;;5051981;28;20035;-73
2022/08/09 11:17:22;;;;;;;3.42;0.70;;;;;;;;;;5053559;28;20541;-73
2022/08/09 11:19:51;;;;;;;3.22;0.70;;;;;;;;;;5056785;28;20029;-73
2022/08/09 11:22:16;;;;;;;1.15;0.93;;;;;;;;;;5056522;28;20449;-73
2022/08/09 11:25:00;;;;;;;1.40;0.90;;;;;;;;;;5057203;28;20043;-73
2022/08/09 11:27:26;;;;;;;1.75;0.90;;;;;;;;;;5057448;28;20025;-73
2022/08/09 11:29:52;;;;;;;6.85;1.10;;;;;;;;;;5057395;28;20358;-73
2022/08/09 11:32:36;;;;;;;3.72;0.98;;;;;;;;;;5057122;28;20047;-73
2022/08/09 11:35:05;;;;;;;1.85;0.73;;;;;;;;;;5056967;28;20032;-73
2022/08/09 11:37:31;;;;;;;3.08;0.80;;;;;;;;;;5057458;28;20112;-73
2022/08/09 11:40:01;;;;;;;2.22;0.82;;;;;;;;;;5057207;28;20108;-73
2022/08/09 11:42:45;;;;;;;0.80;0.80;;;;;;;;;;5056870;28;20033;-73
2022/08/09 11:45:20;;;;;;;2.10;0.70;;;;;;;;;;5057166;28;20021;-73
2022/08/09 11:47:50;;;;;;;4.40;0.98;;;;;;;;;;5055924;28;20036;-73
2022/08/09 11:50:15;;;;;;;2.58;0.93;;;;;;;;;;5056798;28;20017;-73
2022/08/09 11:53:00;;;;;;;2.97;1.00;;;;;;;;;;5056577;28;20144;-73
2022/08/09 11:55:31;;;;;;;0.82;0.82;;;;;;;;;;5056959;28;20032;-73
2022/08/09 11:57:57;;;;;;;3.33;1.00;;;;;;;;;;5056892;28;20025;-73
2022/08/09 12:00:23;;;;;;;2.63;0.85;;;;;;;;;;5056838;28;20029;-73
2022/08/09 12:02:49;;;;;;;1.85;0.95;;;;;;;;;;5056824;28;20102;-73
2022/08/09 12:05:14;;;;;;;2.55;0.85;;;;;;;;;;5056452;28;20457;-73
2022/08/09 12:07:40;;;;;;;1.63;0.90;;;;;;;;;;5056690;28;20112;-73
2022/08/09 12:10:06;;;;;;;2.30;0.75;;;;;;;;;;5055144;28;20017;-73
2022/08/09 12:12:47;;;;;;;5.55;0.80;;;;;;;;;;5056324;28;20051;-73
2022/08/09 12:15:23;;;;;;;1.38;1.00;;;;;;;;;;5056580;28;20164;-73
2022/08/09 12:17:49;;;;;;;2.05;0.95;;;;;;;;;;5056531;28;20071;-73
2022/08/09 12:20:16;;;;;;;2.03;0.88;;;;;;;;;;5056233;28;20025;-73
2022/08/09 12:22:42;;;;;;;1.17;0.98;;;;;;;;;;5055276;28;20087;-73
2022/08/09 12:25:14;;;;;;;0.98;0.60;;;;;;;;;;5056670;28;20028;-73
2022/08/09 12:27:40;;;;;;;2.38;1.10;;;;;;;;;;5056043;28;20025;-73
2022/08/09 12:30:06;;;;;;;2.20;0.90;;;;;;;;;;5055131;28;20461;-73
2022/08/09 12:32:32;;;;;;;5.40;1.00;;;;;;;;;;5056569;28;20036;-73
2022/08/09 12:34:59;;;;;;;2.78;0.90;;;;;;;;;;5055921;28;20025;-73
2022/08/09 12:37:31;;;;;;;1.42;0.90;;;;;;;;;;5056211;28;20021;-73
2022/08/09 12:40:00;;;;;;;2.42;0.88;;;;;;;;;;5056362;28;20469;-73
2022/08/09 12:42:26;;;;;;;1.73;0.93;;;;;;;;;;5055829;28;20030;-73
2022/08/09 12:44:52;;;;;;;1.65;0.70;;;;;;;;;;5055083;28;20020;-73
2022/08/09 12:47:18;;;;;;;1.60;0.80;;;;;;;;;;5054836;28;20033;-73
2022/08/09 12:50:15;;;;;;;3.50;0.88;;;;;;;;;;5055255;28;20013;-74
2022/08/09 12:52:37;;;;;;;2.45;0.90;;;;;;;;;;5055385;28;20049;-73
2022/08/09 12:55:02;;;;;;;1.88;1.77;;;;;;;;;;5055985;28;20025;-73
2022/08/09 12:57:44;;;;;;;3.88;1.25;;;;;;;;;;5055780;28;20024;-73
2022/08/09 13:00:11;;;;;;;1.08;0.98;;;;;;;;;;5055420;28;20036;-73
2022/08/09 13:02:54;;;;;;;2.35;1.08;;;;;;;;;;5054558;28;20040;-73
2022/08/09 13:05:21;;;;;;;2.53;1.05;;;;;;;;;;5055884;28;20067;-73
2022/08/09 13:08:05;;;;;;;3.30;0.77;;;;;;;;;;5054480;28;20020;-73
2022/08/09 13:10:31;;;;;;;2.40;0.77;;;;;;;;;;5054062;28;20032;-73
2022/08/09 13:12:59;;;;;;;1.85;0.80;;;;;;;;;;5037338;28;20017;-73
2022/08/09 13:15:24;;;;;;;1.27;0.88;;;;;;;;;;5055294;28;20033;-73
2022/08/09 13:17:50;;;;;;;2.67;0.57;;;;;;;;;;5053270;28;20107;-73
2022/08/09 13:20:16;;;;;;;1.63;0.80;;;;;;;;;;5054800;28;20059;-73
2022/08/09 13:22:51;;;;;;;2.50;0.95;;;;;;;;;;5053501;28;20070;-73
2022/08/09 13:25:16;;;;;;;4.43;0.85;;;;;;;;;;5054799;28;20419;-73
2022/08/09 13:27:42;;;;;;;1.80;1.05;;;;;;;;;;5054282;28;20045;-73
2022/08/09 13:30:17;;;;;;;4.03;1.23;;;;;;;;;;5054594;28;20071;-73
2022/08/09 13:32:54;;;;;;;3.30;0.90;;;;;;;;;;5054257;28;20025;-73
2022/08/09 13:35:22;;;;;;;3.17;1.20;;;;;;;;;;5053765;28;20041;-73
2022/08/09 13:37:48;;;;;;;2.45;1.00;;;;;;;;;;5052473;28;20021;-73
2022/08/09 13:40:14;;;;;;;2.15;0.93;;;;;;;;;;5053965;28;20039;-73
2022/08/09 13:42:40;;;;;;;2.05;0.80;;;;;;;;;;5053481;28;20021;-73
2022/08/09 13:45:06;;;;;;;1.27;0.90;;;;;;;;;;5052100;28;20041;-73
2022/08/09 13:47:32;;;;;;;2.08;0.80;;;;;;;;;;5053377;28;20385;-73
2022/08/09 13:50:08;;;;;;;3.03;0.90;;;;;;;;;;5053191;28;20049;-73
2022/08/09 13:52:34;;;;;;;1.83;1.00;;;;;;;;;;5051804;28;20527;-73
2022/08/09 13:55:00;;;;;;;0.88;0.70;;;;;;;;;;5053150;28;20028;-73
2022/08/09 13:57:26;;;;;;;1.23;0.98;;;;;;;;;;5053191;28;20469;-73
2022/08/09 13:59:51;;;;;;;1.92;0.80;;;;;;;;;;5053297;28;20036;-73
2022/08/09 14:02:17;;;;;;;1.63;1.00;;;;;;;;;;5053282;28;20043;-73
2022/08/09 14:04:42;;;;;;;1.73;0.73;;;;;;;;;;5053475;28;20017;-73
2022/08/09 14:07:08;;;;;;;3.05;0.85;;;;;;;;;;5053460;28;20064;-73
2022/08/09 14:09:33;;;;;;;1.13;0.73;;;;;;;;;;5053542;28;20078;-73
2022/08/09 14:11:59;;;;;;;2.13;1.30;;;;;;;;;;5053033;28;20476;-73
2022/08/09 14:14:25;;;;;;;1.10;0.90;;;;;;;;;;5053116;28;20074;-73
2022/08/09 14:16:52;;;;;;;1.08;0.88;;;;;;;;;;5053064;28;20021;-73
2022/08/09 14:19:17;;;;;;;2.17;0.85;;;;;;;;;;5051773;28;20051;-73
2022/08/09 14:21:42;;;;;;;2.53;1.02;;;;;;;;;;5053497;28;20448;-73
2022/08/09 14:24:14;;;;;;;2.10;1.00;;;;;;;;;;5053923;28;20016;-73
2022/08/09 14:26:40;;;;;;;1.65;0.77;;;;;;;;;;5053552;28;20040;-73
2022/08/09 14:29:07;;;;;;;3.72;0.90;;;;;;;;;;5053598;28;20037;-73
2022/08/09 14:31:33;;;;;;;0.90;0.70;;;;;;;;;;5053448;28;20380;-73
2022/08/09 14:33:58;;;;;;;4.38;1.20;;;;;;;;;;5053353;28;20029;-73
2022/08/09 14:36:23;;;;;;;2.00;0.90;;;;;;;;;;5053129;28;20041;-73
2022/08/09 14:38:49;;;;;;;1.75;1.00;;;;;;;;;;5053123;28;20025;-74
2022/08/09 14:41:15;;;;;;;1.88;1.10;;;;;;;;;;5053389;28;20423;-74
2022/08/09 14:43:41;;;;;;;3.47;1.20;;;;;;;;;;5051946;28;20116;-74
2022/08/09 14:46:06;;;;;;;1.80;1.00;;;;;;;;;;5053160;28;20163;-74